createdAt,value
2017-12-21T00:02:01.462Z,76.00
2017-12-21T00:04:34.073Z,76.00
2017-12-21T00:07:06.745Z,76.00
2017-12-21T00:09:39.331Z,76.10
2017-12-21T00:12:12.072Z,76.30
2017-12-21T00:14:44.465Z,76.40
2017-12-21T00:17:17.127Z,76.40
2017-12-21T00:19:51.278Z,76.40
2017-12-21T00:22:40.603Z,76.40
2017-12-21T00:25:13.764Z,76.40
2017-12-21T00:27:46.954Z,76.40
2017-12-21T00:30:20.223Z,76.50
2017-12-21T00:32:53.286Z,76.80
2017-12-21T00:35:27.402Z,77.30
2017-12-21T00:38:00.774Z,77.10
2017-12-21T00:40:33.833Z,77.10
2017-12-21T00:43:07.260Z,77.10
2017-12-21T00:45:40.360Z,77.70
2017-12-21T00:48:12.869Z,77.20
2017-12-21T00:50:46.181Z,77.20
2017-12-21T00:53:18.618Z,77.40
2017-12-21T00:55:52.012Z,77.50
2017-12-21T00:58:25.333Z,77.60
2017-12-21T01:00:58.306Z,77.60
2017-12-21T01:03:30.761Z,77.60
2017-12-21T01:06:03.953Z,77.70
2017-12-21T01:08:37.576Z,77.80
2017-12-21T01:11:10.451Z,77.80
2017-12-21T01:13:43.028Z,77.80
2017-12-21T01:16:15.540Z,77.80
2017-12-21T01:18:48.077Z,77.60
2017-12-21T01:21:21.563Z,77.60
2017-12-21T01:23:54.875Z,77.60
2017-12-21T01:26:27.657Z,77.60
2017-12-21T01:29:00.215Z,77.60
2017-12-21T01:31:32.905Z,77.40
2017-12-21T01:34:05.345Z,77.40
2017-12-21T01:36:38.709Z,77.20
2017-12-21T01:39:12.002Z,77.20
2017-12-21T01:41:45.179Z,77.10
2017-12-21T01:44:18.523Z,77.10
2017-12-21T01:46:51.067Z,76.80
2017-12-21T01:49:25.391Z,76.90
2017-12-21T01:51:58.021Z,76.80
2017-12-21T01:54:30.955Z,76.80
2017-12-21T01:57:03.561Z,77.00
2017-12-21T01:59:36.761Z,77.00
2017-12-21T02:02:09.652Z,77.50
2017-12-21T02:04:49.825Z,77.30
2017-12-21T02:07:22.501Z,77.30
2017-12-21T02:09:55.588Z,77.20
2017-12-21T02:12:28.495Z,76.90
2017-12-21T02:15:00.886Z,77.00
2017-12-21T02:17:34.386Z,77.20
2017-12-21T02:20:07.220Z,76.90
2017-12-21T02:22:39.860Z,77.00
2017-12-21T02:25:13.276Z,76.80
2017-12-21T02:27:46.360Z,76.80
2017-12-21T02:30:18.833Z,76.80
2017-12-21T02:32:51.432Z,77.00
2017-12-21T02:35:24.004Z,77.20
2017-12-21T02:37:57.540Z,77.00
2017-12-21T02:40:31.743Z,76.80
2017-12-21T02:43:04.453Z,76.90
2017-12-21T02:45:36.991Z,76.80
2017-12-21T02:48:10.445Z,76.80
2017-12-21T02:50:43.591Z,76.80
2017-12-21T02:53:17.801Z,77.00
2017-12-21T02:55:51.901Z,76.80
2017-12-21T02:58:25.333Z,76.90
2017-12-21T03:00:58.660Z,76.80
2017-12-21T03:03:31.877Z,76.60
2017-12-21T03:06:04.434Z,76.50
2017-12-21T03:08:37.685Z,76.40
2017-12-21T03:11:10.865Z,76.40
2017-12-21T03:13:43.615Z,76.20
2017-12-21T03:16:16.711Z,76.20
2017-12-21T03:18:50.692Z,76.00
2017-12-21T03:21:23.233Z,76.00
2017-12-21T03:23:55.966Z,75.90
2017-12-21T03:26:29.341Z,75.70
2017-12-21T03:29:01.981Z,75.60
2017-12-21T03:31:34.911Z,75.80
2017-12-21T03:34:08.294Z,75.30
2017-12-21T03:36:41.023Z,75.30
2017-12-21T03:39:14.380Z,75.30
2017-12-21T03:41:47.243Z,75.30
2017-12-21T03:44:20.761Z,75.40
2017-12-21T03:46:53.317Z,75.10
2017-12-21T03:49:25.975Z,75.10
2017-12-21T03:51:58.440Z,75.10
2017-12-21T03:54:31.002Z,75.10
2017-12-21T03:57:03.748Z,75.10
2017-12-21T03:59:37.169Z,74.90
2017-12-21T04:02:10.005Z,75.20
2017-12-21T04:04:43.110Z,74.80
2017-12-21T04:07:16.613Z,75.00
2017-12-21T04:09:50.256Z,74.80
2017-12-21T04:12:23.669Z,74.80
2017-12-21T04:14:57.033Z,74.80
2017-12-21T04:17:30.218Z,74.90
2017-12-21T04:20:03.567Z,75.00
2017-12-21T04:22:36.697Z,74.80
2017-12-21T04:25:09.216Z,74.60
2017-12-21T04:27:42.830Z,74.70
2017-12-21T04:30:15.544Z,74.90
2017-12-21T04:32:48.672Z,74.60
2017-12-21T04:35:21.421Z,74.70
2017-12-21T04:37:53.851Z,74.70
2017-12-21T04:40:26.500Z,74.60
2017-12-21T04:42:59.002Z,74.60
2017-12-21T04:45:31.526Z,74.60
2017-12-21T04:48:04.157Z,74.50
2017-12-21T04:50:36.663Z,74.40
2017-12-21T04:53:09.463Z,74.30
2017-12-21T04:55:42.479Z,74.30
2017-12-21T04:58:15.682Z,74.30
2017-12-21T05:00:48.738Z,74.30
2017-12-21T05:03:21.369Z,74.20
2017-12-21T05:05:53.802Z,74.10
2017-12-21T05:08:27.229Z,74.80
2017-12-21T05:11:00.831Z,74.20
2017-12-21T05:13:33.324Z,74.20
2017-12-21T05:16:05.939Z,74.10
2017-12-21T05:18:38.976Z,74.20
2017-12-21T05:21:11.475Z,74.10
2017-12-21T05:23:44.497Z,74.10
2017-12-21T05:26:17.812Z,74.00
2017-12-21T05:28:50.989Z,73.90
2017-12-21T05:31:23.483Z,74.00
2017-12-21T05:33:56.521Z,74.10
2017-12-21T05:36:29.866Z,74.00
2017-12-21T05:39:02.371Z,73.90
2017-12-21T05:41:35.531Z,74.00
2017-12-21T05:44:08.760Z,74.10
2017-12-21T05:46:41.374Z,73.90
2017-12-21T05:49:13.947Z,73.90
2017-12-21T05:51:46.527Z,74.20
2017-12-21T05:54:19.081Z,73.80
2017-12-21T05:56:51.624Z,73.80
2017-12-21T05:59:24.161Z,73.80
2017-12-21T06:01:57.493Z,74.00
2017-12-21T06:04:30.494Z,74.00
2017-12-21T06:07:03.072Z,74.10
2017-12-21T06:09:35.570Z,74.10
2017-12-21T06:12:08.084Z,74.10
2017-12-21T06:14:40.702Z,74.40
2017-12-21T06:17:13.136Z,74.40
2017-12-21T06:19:46.742Z,74.70
2017-12-21T06:22:20.038Z,74.60
2017-12-21T06:24:53.206Z,74.90
2017-12-21T06:27:26.215Z,74.80
2017-12-21T06:29:59.324Z,75.10
2017-12-21T06:32:31.801Z,75.10
2017-12-21T06:35:05.109Z,75.20
2017-12-21T06:37:38.375Z,75.20
2017-12-21T06:40:11.662Z,75.40
2017-12-21T06:42:44.530Z,75.50
2017-12-21T06:45:17.979Z,75.70
2017-12-21T06:47:51.984Z,76.20
2017-12-21T06:50:25.483Z,76.20
2017-12-21T06:52:58.165Z,76.30
2017-12-21T06:55:31.109Z,76.50
2017-12-21T06:58:04.611Z,77.00
2017-12-21T07:00:37.232Z,76.70
2017-12-21T07:03:09.695Z,77.10
2017-12-21T07:05:42.380Z,77.10
2017-12-21T07:08:14.815Z,77.40
2017-12-21T07:10:47.394Z,77.70
2017-12-21T07:13:19.878Z,77.80
2017-12-21T07:15:52.505Z,78.10
2017-12-21T07:18:24.846Z,78.00
2017-12-21T07:20:57.395Z,78.00
2017-12-21T07:23:29.863Z,78.10
2017-12-21T07:26:02.581Z,78.10
2017-12-21T07:28:34.975Z,78.10
2017-12-21T07:31:08.304Z,78.20
2017-12-21T07:33:41.518Z,78.00
2017-12-21T07:36:14.895Z,78.00
2017-12-21T07:38:48.020Z,78.10
2017-12-21T07:41:22.196Z,78.00
2017-12-21T07:43:54.843Z,77.90
2017-12-21T07:46:27.977Z,78.10
2017-12-21T07:49:00.501Z,78.40
2017-12-21T07:51:33.965Z,78.40
2017-12-21T07:54:07.870Z,78.00
2017-12-21T07:56:40.516Z,78.10
2017-12-21T07:59:13.858Z,78.10
2017-12-21T08:01:46.718Z,78.20
2017-12-21T08:04:19.681Z,78.20
2017-12-21T08:06:52.590Z,77.70
2017-12-21T08:09:25.115Z,78.10
2017-12-21T08:11:57.702Z,78.20
2017-12-21T08:14:30.243Z,77.90
2017-12-21T08:17:02.739Z,77.60
2017-12-21T08:19:35.452Z,77.60
2017-12-21T08:22:08.019Z,77.60
2017-12-21T08:24:41.359Z,77.80
2017-12-21T08:27:14.169Z,77.80
2017-12-21T08:29:46.726Z,78.00
2017-12-21T08:32:19.180Z,77.80
2017-12-21T08:34:51.992Z,77.00
2017-12-21T08:37:24.471Z,77.10
2017-12-21T08:39:57.031Z,77.00
2017-12-21T08:42:29.443Z,76.90
2017-12-21T08:45:02.561Z,76.60
2017-12-21T08:47:36.522Z,76.30
2017-12-21T08:50:09.256Z,76.40
2017-12-21T08:52:42.557Z,76.40
2017-12-21T08:55:16.224Z,75.80
2017-12-21T08:57:49.682Z,75.60
2017-12-21T09:00:22.973Z,75.60
2017-12-21T09:02:55.835Z,75.60
2017-12-21T09:05:29.043Z,75.50
2017-12-21T09:08:02.229Z,75.30
2017-12-21T09:10:35.601Z,74.80
2017-12-21T09:13:08.678Z,74.40
2017-12-21T09:15:42.193Z,74.60
2017-12-21T09:18:15.425Z,74.10
2017-12-21T09:20:48.607Z,73.90
2017-12-21T09:23:21.923Z,73.30
2017-12-21T09:25:54.886Z,73.30
2017-12-21T09:28:27.418Z,72.70
2017-12-21T09:31:00.721Z,72.40
2017-12-21T09:33:33.455Z,72.40
2017-12-21T09:36:06.135Z,72.40
2017-12-21T09:38:39.511Z,72.30
2017-12-21T09:41:12.093Z,73.00
2017-12-21T09:43:44.712Z,72.30
2017-12-21T09:46:17.304Z,72.30
2017-12-21T09:48:50.704Z,72.30
2017-12-21T09:51:24.093Z,72.40
2017-12-21T09:53:56.781Z,72.40
2017-12-21T09:56:30.599Z,72.40
2017-12-21T09:59:04.728Z,72.50
2017-12-21T10:01:37.716Z,72.40
2017-12-21T10:04:11.187Z,72.40
2017-12-21T10:06:44.178Z,72.00
2017-12-21T10:09:17.591Z,72.50
2017-12-21T10:11:51.001Z,72.00
2017-12-21T10:14:24.136Z,71.50
2017-12-21T10:16:57.065Z,71.90
2017-12-21T10:19:29.540Z,71.60
2017-12-21T10:22:02.955Z,71.70
2017-12-21T10:24:36.226Z,71.60
2017-12-21T10:27:08.672Z,71.60
2017-12-21T10:29:41.588Z,71.60
2017-12-21T10:32:14.749Z,71.50
2017-12-21T10:34:47.589Z,71.20
2017-12-21T10:37:20.168Z,71.40
2017-12-21T10:39:53.485Z,71.60
2017-12-21T10:42:26.861Z,71.50
2017-12-21T10:44:59.309Z,70.80
2017-12-21T10:47:32.557Z,70.30
2017-12-21T10:50:05.305Z,70.30
2017-12-21T10:52:37.898Z,70.30
2017-12-21T10:55:10.333Z,70.30
2017-12-21T10:57:42.855Z,70.40
2017-12-21T11:00:16.370Z,69.70
2017-12-21T11:02:49.141Z,69.60
2017-12-21T11:05:21.761Z,69.00
2017-12-21T11:07:54.614Z,68.70
2017-12-21T11:10:28.766Z,67.80
2017-12-21T11:13:01.459Z,67.70
2017-12-21T11:15:34.941Z,67.40
2017-12-21T11:18:08.845Z,66.80
2017-12-21T11:20:42.207Z,66.80
2017-12-21T11:23:15.355Z,67.30
2017-12-21T11:25:48.784Z,67.20
2017-12-21T11:28:21.986Z,66.90
2017-12-21T11:30:55.213Z,66.10
2017-12-21T11:33:29.153Z,66.00
2017-12-21T11:36:02.208Z,66.00
2017-12-21T11:38:35.940Z,66.50
2017-12-21T11:41:08.453Z,66.40
2017-12-21T11:43:42.117Z,66.50
2017-12-21T11:46:14.720Z,66.50
2017-12-21T11:48:47.323Z,67.00
2017-12-21T11:51:20.532Z,66.00
2017-12-21T11:53:53.585Z,65.90
2017-12-21T11:56:26.275Z,65.60
2017-12-21T11:58:58.903Z,65.50
2017-12-21T12:01:31.578Z,65.80
2017-12-21T12:04:04.069Z,65.30
2017-12-21T12:06:37.341Z,65.60
2017-12-21T12:09:09.919Z,65.50
2017-12-21T12:11:42.399Z,66.30
2017-12-21T12:14:15.129Z,66.60
2017-12-21T12:16:47.499Z,65.40
2017-12-21T12:19:20.351Z,65.50
2017-12-21T12:21:53.631Z,64.90
2017-12-21T12:24:26.632Z,66.00
2017-12-21T12:26:59.815Z,65.70
2017-12-21T12:29:32.398Z,65.70
2017-12-21T12:32:05.642Z,65.60
2017-12-21T12:34:39.768Z,65.60
2017-12-21T12:37:12.452Z,65.60
2017-12-21T12:39:44.988Z,65.80
2017-12-21T12:42:18.353Z,65.60
2017-12-21T12:44:51.529Z,65.30
2017-12-21T12:47:25.728Z,65.80
2017-12-21T12:49:58.294Z,65.80
2017-12-21T12:52:31.482Z,65.20
2017-12-21T12:55:04.545Z,65.50
2017-12-21T12:57:37.454Z,65.90
2017-12-21T13:00:10.079Z,66.10
2017-12-21T13:02:42.654Z,66.20
2017-12-21T13:05:16.025Z,65.60
2017-12-21T13:07:48.793Z,65.50
2017-12-21T13:10:21.292Z,65.60
2017-12-21T13:12:53.806Z,65.80
2017-12-21T13:15:26.430Z,66.00
2017-12-21T13:17:59.006Z,66.10
2017-12-21T13:20:31.598Z,66.00
2017-12-21T13:23:04.216Z,66.00
2017-12-21T13:25:36.833Z,66.20
2017-12-21T13:28:10.180Z,66.30
2017-12-21T13:30:42.906Z,66.40
2017-12-21T13:33:15.807Z,66.40
2017-12-21T13:35:49.103Z,66.70
2017-12-21T13:38:22.127Z,66.50
2017-12-21T13:40:55.362Z,66.50
2017-12-21T13:43:27.982Z,67.20
2017-12-21T13:46:01.300Z,66.50
2017-12-21T13:48:35.285Z,68.20
2017-12-21T13:51:07.813Z,68.20
2017-12-21T13:53:41.135Z,68.60
2017-12-21T13:56:14.436Z,69.50
2017-12-21T13:58:46.903Z,70.80
2017-12-21T14:01:19.418Z,71.10
2017-12-21T14:03:52.717Z,71.80
2017-12-21T14:06:25.716Z,72.20
2017-12-21T14:08:58.267Z,72.20
2017-12-21T14:11:31.631Z,73.00
2017-12-21T14:14:04.555Z,73.00
2017-12-21T14:16:37.220Z,73.30
2017-12-21T14:19:09.759Z,73.50
2017-12-21T14:21:43.283Z,74.80
2017-12-21T14:24:16.035Z,75.30
2017-12-21T14:26:48.802Z,75.80
2017-12-21T14:29:21.220Z,76.30
2017-12-21T14:31:53.831Z,76.80
2017-12-21T14:34:26.320Z,77.40
2017-12-21T14:36:58.966Z,77.70
2017-12-21T14:39:33.149Z,78.90
2017-12-21T14:42:06.182Z,78.90
2017-12-21T14:44:39.401Z,79.10
2017-12-21T14:47:11.845Z,80.20
2017-12-21T14:49:45.144Z,79.60
2017-12-21T14:52:18.270Z,79.70
2017-12-21T14:54:51.661Z,80.60
2017-12-21T14:57:24.334Z,80.50
2017-12-21T14:59:58.348Z,80.90
2017-12-21T15:02:30.833Z,80.90
2017-12-21T15:05:03.377Z,81.30
2017-12-21T15:07:36.054Z,81.30
2017-12-21T15:10:09.952Z,81.60
2017-12-21T15:12:42.719Z,81.60
2017-12-21T15:15:16.754Z,81.70
2017-12-21T15:17:49.319Z,81.70
2017-12-21T15:20:22.425Z,81.90
2017-12-21T15:22:54.938Z,82.30
2017-12-21T15:25:27.519Z,82.10
2017-12-21T15:27:59.998Z,82.30
2017-12-21T15:30:34.043Z,82.50
2017-12-21T15:33:07.038Z,82.50
2017-12-21T15:35:40.394Z,82.80
2017-12-21T15:38:12.933Z,83.00
2017-12-21T15:40:45.857Z,83.10
2017-12-21T15:43:18.473Z,82.80
2017-12-21T15:45:50.943Z,82.90
2017-12-21T15:48:23.562Z,82.80
2017-12-21T15:50:56.126Z,82.90
2017-12-21T15:53:29.393Z,82.80
2017-12-21T15:56:03.088Z,82.90
2017-12-21T15:58:36.937Z,83.00
2017-12-21T16:01:09.775Z,83.00
2017-12-21T16:03:42.267Z,83.20
2017-12-21T16:06:15.416Z,83.30
2017-12-21T16:08:49.376Z,83.60
2017-12-21T16:11:22.874Z,83.60
2017-12-21T16:13:56.027Z,83.60
2017-12-21T16:16:29.060Z,83.80
2017-12-21T16:19:02.168Z,83.80
2017-12-21T16:21:34.600Z,83.80
2017-12-21T16:24:08.037Z,83.80
2017-12-21T16:26:41.847Z,84.00
2017-12-21T16:29:14.636Z,84.00
2017-12-21T16:31:47.492Z,84.20
2017-12-21T16:34:20.067Z,84.30
2017-12-21T16:36:52.589Z,84.30
2017-12-21T16:39:25.097Z,84.40
2017-12-21T16:41:59.152Z,84.60
2017-12-21T16:44:32.074Z,84.60
2017-12-21T16:47:04.673Z,84.70
2017-12-21T16:49:37.794Z,84.90
2017-12-21T16:52:10.355Z,85.00
2017-12-21T16:54:43.858Z,84.90
2017-12-21T16:57:16.429Z,85.00
2017-12-21T16:59:48.969Z,85.70
2017-12-21T17:02:21.664Z,85.10
2017-12-21T17:04:54.573Z,85.10
2017-12-21T17:07:28.304Z,85.30
2017-12-21T17:10:01.709Z,85.30
2017-12-21T17:12:34.629Z,85.30
2017-12-21T17:15:07.445Z,85.30
2017-12-21T17:17:41.178Z,85.30
2017-12-21T17:20:13.941Z,85.40
2017-12-21T17:22:46.975Z,85.60
2017-12-21T17:25:19.915Z,85.70
2017-12-21T17:27:52.483Z,85.70
2017-12-21T17:30:25.248Z,85.60
2017-12-21T17:32:57.742Z,85.60
2017-12-21T17:35:30.300Z,85.60
2017-12-21T17:38:03.704Z,85.60
2017-12-21T17:40:36.959Z,85.60
2017-12-21T17:43:11.131Z,85.70
2017-12-21T17:45:44.672Z,86.30
2017-12-21T17:48:17.406Z,85.70
2017-12-21T17:50:49.933Z,85.40
2017-12-21T17:53:22.465Z,85.70
2017-12-21T17:55:55.189Z,85.90
2017-12-21T17:58:27.774Z,86.00
2017-12-21T18:01:01.365Z,86.10
2017-12-21T18:03:34.925Z,86.20
2017-12-21T18:06:07.912Z,86.20
2017-12-21T18:08:40.606Z,86.30
2017-12-21T18:11:13.379Z,86.30
2017-12-21T18:13:45.998Z,86.30
2017-12-21T18:16:18.439Z,86.20
2017-12-21T18:18:51.516Z,86.30
2017-12-21T18:21:24.929Z,86.30
2017-12-21T18:23:57.565Z,86.30
2017-12-21T18:26:31.196Z,86.30
2017-12-21T18:29:03.923Z,86.30
2017-12-21T18:31:37.185Z,86.20
2017-12-21T18:34:10.556Z,86.20
2017-12-21T18:36:43.706Z,86.30
2017-12-21T18:39:16.600Z,86.20
2017-12-21T18:41:49.207Z,86.20
2017-12-21T18:44:22.574Z,86.30
2017-12-21T18:46:56.588Z,86.50
2017-12-21T18:49:30.129Z,86.20
2017-12-21T18:52:02.871Z,86.90
2017-12-21T18:54:36.310Z,86.10
2017-12-21T18:57:09.306Z,86.20
2017-12-21T18:59:43.532Z,86.30
2017-12-21T19:02:16.516Z,86.30
2017-12-21T19:04:49.943Z,86.40
2017-12-21T19:07:24.005Z,86.40
2017-12-21T19:09:56.967Z,86.30
2017-12-21T19:12:31.182Z,86.40
2017-12-21T19:15:03.837Z,86.40
2017-12-21T19:17:36.970Z,86.40
2017-12-21T19:20:10.551Z,86.50
2017-12-21T19:22:43.958Z,86.40
2017-12-21T19:25:17.861Z,86.40
2017-12-21T19:27:52.780Z,87.10
2017-12-21T19:30:28.735Z,86.50
2017-12-21T19:33:04.089Z,86.60
2017-12-21T19:35:39.679Z,86.60
2017-12-21T19:38:14.778Z,86.60
2017-12-21T19:40:50.416Z,86.60
2017-12-21T19:43:26.522Z,86.60
2017-12-21T19:46:02.120Z,87.40
2017-12-21T19:48:37.792Z,86.80
2017-12-21T19:51:14.202Z,87.60
2017-12-21T19:53:49.434Z,87.00
2017-12-21T19:56:24.773Z,87.00
2017-12-21T19:58:59.672Z,87.00
2017-12-21T20:01:35.750Z,87.50
2017-12-21T20:04:11.518Z,87.10
2017-12-21T20:06:46.896Z,87.10
2017-12-21T20:09:22.938Z,87.10
2017-12-21T20:11:59.262Z,87.10
2017-12-21T20:14:35.063Z,87.10
2017-12-21T20:17:11.426Z,87.00
2017-12-21T20:19:47.284Z,87.00
2017-12-21T20:22:22.779Z,86.90
2017-12-21T20:24:59.320Z,87.00
2017-12-21T20:27:35.781Z,86.90
2017-12-21T20:30:11.559Z,86.80
2017-12-21T20:32:46.904Z,86.90
2017-12-21T20:35:23.094Z,86.80
2017-12-21T20:37:58.362Z,87.20
2017-12-21T20:40:34.267Z,87.00
2017-12-21T20:43:09.273Z,86.90
2017-12-21T20:45:44.672Z,86.90
2017-12-21T20:48:20.470Z,86.80
2017-12-21T20:50:56.395Z,86.90
2017-12-21T20:53:32.087Z,86.80
2017-12-21T20:56:07.573Z,86.80
2017-12-21T20:58:42.662Z,86.90
2017-12-21T21:01:17.889Z,86.90
2017-12-21T21:03:53.228Z,86.90
2017-12-21T21:06:28.530Z,86.80
2017-12-21T21:09:04.316Z,86.80
2017-12-21T21:11:40.568Z,86.70
2017-12-21T21:14:15.851Z,86.90
2017-12-21T21:16:51.321Z,86.80
2017-12-21T21:19:26.908Z,86.80
2017-12-21T21:22:02.921Z,87.00
2017-12-21T21:24:38.271Z,87.00
2017-12-21T21:27:13.651Z,87.10
2017-12-21T21:29:48.888Z,87.00
2017-12-21T21:32:25.208Z,87.10
2017-12-21T21:35:00.335Z,87.00
2017-12-21T21:37:36.106Z,87.00
2017-12-21T21:40:11.468Z,87.00
2017-12-21T21:42:47.082Z,87.70
2017-12-21T21:45:22.472Z,87.10
2017-12-21T21:47:57.782Z,87.00
2017-12-21T21:50:31.656Z,87.10
2017-12-21T21:53:05.867Z,87.10
2017-12-21T21:55:39.774Z,87.20
2017-12-21T21:58:12.605Z,87.10
2017-12-21T22:00:45.764Z,87.10
2017-12-21T22:03:19.098Z,87.10
2017-12-21T22:05:52.500Z,87.10
2017-12-21T22:08:25.727Z,87.00
2017-12-21T22:10:59.224Z,87.10
2017-12-21T22:13:32.120Z,87.70
2017-12-21T22:16:05.500Z,87.10
2017-12-21T22:18:38.515Z,87.00
2017-12-21T22:21:11.654Z,87.00
2017-12-21T22:23:44.899Z,87.10
2017-12-21T22:26:17.538Z,86.90
2017-12-21T22:28:50.284Z,86.80
2017-12-21T22:31:23.683Z,86.80
2017-12-21T22:33:56.360Z,86.80
2017-12-21T22:36:28.831Z,86.90
2017-12-21T22:39:02.242Z,86.90
2017-12-21T22:41:34.799Z,86.90
2017-12-21T22:44:07.291Z,86.80
2017-12-21T22:46:40.540Z,86.80
2017-12-21T22:49:13.920Z,86.80
2017-12-21T22:51:46.788Z,86.80
2017-12-21T22:54:19.386Z,86.80
2017-12-21T22:56:51.889Z,86.80
2017-12-21T22:59:25.029Z,86.70
2017-12-21T23:01:57.859Z,86.70
2017-12-21T23:04:31.250Z,86.60
2017-12-21T23:07:04.545Z,86.60
2017-12-21T23:09:37.784Z,86.70
2017-12-21T23:12:11.966Z,86.70
2017-12-21T23:14:45.406Z,87.30
2017-12-21T23:17:18.673Z,86.70
2017-12-21T23:19:51.642Z,86.80
2017-12-21T23:22:24.765Z,86.80
2017-12-21T23:24:58.054Z,86.80
2017-12-21T23:27:30.823Z,86.70
2017-12-21T23:30:04.241Z,86.70
2017-12-21T23:32:38.384Z,86.80
2017-12-21T23:35:12.427Z,86.90
2017-12-21T23:37:45.404Z,86.90
2017-12-21T23:40:19.177Z,86.80
2017-12-21T23:42:52.083Z,86.90
2017-12-21T23:45:24.649Z,86.80
2017-12-21T23:47:57.278Z,86.90
2017-12-21T23:50:30.021Z,87.00
2017-12-21T23:53:02.493Z,86.90
2017-12-21T23:55:35.164Z,86.90
2017-12-21T23:58:08.478Z,86.90
